DEDMZ EDDL-EDLW
Flight info
| Callsign | DEDMZ |
|---|---|
| Flight time | N/A |
| Altitude | 2200 |
| Route | DCT |
| Aircraft | C172/L-SKYGRY/SU2 |
Departure
| Time | 2026-05-05 13:31 |
|---|---|
| Airport | Düsseldorf Airport (EDDL) |
Arrival
| Time | N/A |
|---|---|
| Airport | Dortmund Airport (EDLW) |
| Time | Latitude | Longitude | Altitude | Speed | Heading |
|---|---|---|---|---|---|
| 2026-05-05 13:07 | 51.27421 | 6.75306 | 117 ft | 0 kts | 85° |
| 2026-05-05 13:24 | 51.27427 | 6.75329 | 116 ft | 3 kts | 25° |
| 2026-05-05 13:25 | 51.27435 | 6.75329 | 116 ft | 3 kts | 351° |
| 2026-05-05 13:25 | 51.27474 | 6.75305 | 116 ft | 7 kts | 18° |
| 2026-05-05 13:25 | 51.27465 | 6.75419 | 120 ft | 14 kts | 77° |
| 2026-05-05 13:25 | 51.27487 | 6.75493 | 120 ft | 0 kts | 60° |
| 2026-05-05 13:26 | 51.27487 | 6.75507 | 120 ft | 6 kts | 125° |
| 2026-05-05 13:26 | 51.27468 | 6.75444 | 120 ft | 12 kts | 255° |
| 2026-05-05 13:26 | 51.27484 | 6.75269 | 118 ft | 16 kts | 288° |
| 2026-05-05 13:26 | 51.27571 | 6.75199 | 115 ft | 14 kts | 348° |
| 2026-05-05 13:27 | 51.27653 | 6.75186 | 118 ft | 10 kts | 6° |
| 2026-05-05 13:27 | 51.27722 | 6.75197 | 116 ft | 10 kts | 8° |
| 2026-05-05 13:27 | 51.27767 | 6.75260 | 116 ft | 8 kts | 52° |
| 2026-05-05 13:27 | 51.27792 | 6.75314 | 116 ft | 0 kts | 54° |
| 2026-05-05 13:28 | 51.27811 | 6.75347 | 116 ft | 8 kts | 28° |
| 2026-05-05 13:28 | 51.27885 | 6.75315 | 114 ft | 10 kts | 333° |
| 2026-05-05 13:28 | 51.27894 | 6.75309 | 114 ft | 0 kts | 334° |
| 2026-05-05 13:29 | 51.27943 | 6.75273 | 112 ft | 19 kts | 347° |
| 2026-05-05 13:30 | 51.28094 | 6.75478 | 115 ft | 49 kts | 53° |
| 2026-05-05 13:30 | 51.28398 | 6.76112 | 117 ft | 92 kts | 52° |
| 2026-05-05 13:30 | 51.28817 | 6.76985 | 299 ft | 98 kts | 52° |
| 2026-05-05 13:30 | 51.29223 | 6.77795 | 618 ft | 92 kts | 56° |
| 2026-05-05 13:31 | 51.29576 | 6.78682 | 849 ft | 92 kts | 60° |
| 2026-05-05 13:31 | 51.29680 | 6.79630 | 1167 ft | 87 kts | 104° |
| 2026-05-05 13:31 | 51.29425 | 6.80528 | 1401 ft | 87 kts | 115° |
| 2026-05-05 13:31 | 51.29115 | 6.81501 | 1497 ft | 101 kts | 124° |
| 2026-05-05 13:32 | 51.28655 | 6.82468 | 1589 ft | 111 kts | 131° |
| 2026-05-05 13:32 | 51.28195 | 6.83239 | 1618 ft | 121 kts | 137° |